sensor_id;sensor_type;location;lat;lon;timestamp;pressure;altitude;pressure_sealevel;temperature;humidity
71306;BME280;59097;46.858;18.632;2023-03-03T00:02:38;100657.19;;;6.29;100.00
71306;BME280;59097;46.858;18.632;2023-03-03T00:05:07;100668.75;;;6.37;100.00
71306;BME280;59097;46.858;18.632;2023-03-03T00:07:35;100665.16;;;6.38;100.00
71306;BME280;59097;46.858;18.632;2023-03-03T00:10:17;100666.12;;;6.37;100.00
71306;BME280;59097;46.858;18.632;2023-03-03T00:12:59;100662.44;;;6.04;100.00
71306;BME280;59097;46.858;18.632;2023-03-03T00:15:25;100658.94;;;6.21;100.00
71306;BME280;59097;46.858;18.632;2023-03-03T00:17:52;100659.47;;;6.24;100.00
71306;BME280;59097;46.858;18.632;2023-03-03T00:22:51;100662.03;;;5.91;100.00
71306;BME280;59097;46.858;18.632;2023-03-03T00:25:29;100654.66;;;6.87;100.00
71306;BME280;59097;46.858;18.632;2023-03-03T00:30:45;100658.94;;;6.21;100.00
71306;BME280;59097;46.858;18.632;2023-03-03T00:33:23;100657.72;;;6.07;100.00
71306;BME280;59097;46.858;18.632;2023-03-03T00:35:55;100648.75;;;6.18;100.00
71306;BME280;59097;46.858;18.632;2023-03-03T00:38:24;100657.09;;;6.13;100.00
71306;BME280;59097;46.858;18.632;2023-03-03T00:40:53;100649.25;;;6.21;100.00
71306;BME280;59097;46.858;18.632;2023-03-03T00:43:23;100647.13;;;6.25;100.00
71306;BME280;59097;46.858;18.632;2023-03-03T00:46:16;100638.56;;;6.23;100.00
71306;BME280;59097;46.858;18.632;2023-03-03T00:49:21;100642.00;;;6.23;100.00
71306;BME280;59097;46.858;18.632;2023-03-03T00:51:49;100638.56;;;6.23;100.00
71306;BME280;59097;46.858;18.632;2023-03-03T00:54:16;100638.22;;;6.26;100.00
71306;BME280;59097;46.858;18.632;2023-03-03T00:56:42;100641.56;;;6.28;100.00
71306;BME280;59097;46.858;18.632;2023-03-03T00:59:08;100629.97;;;6.21;100.00
71306;BME280;59097;46.858;18.632;2023-03-03T01:01:41;100634.09;;;6.91;100.00
71306;BME280;59097;46.858;18.632;2023-03-03T01:04:10;100634.09;;;6.91;100.00
71306;BME280;59097;46.858;18.632;2023-03-03T01:06:37;100630.19;;;6.27;100.00
71306;BME280;59097;46.858;18.632;2023-03-03T01:09:05;100635.78;;;6.24;100.00
71306;BME280;59097;46.858;18.632;2023-03-03T01:11:34;100620.81;;;6.25;100.00
71306;BME280;59097;46.858;18.632;2023-03-03T01:14:01;100621.94;;;6.22;100.00
71306;BME280;59097;46.858;18.632;2023-03-03T01:16:29;100616.16;;;6.19;100.00
71306;BME280;59097;46.858;18.632;2023-03-03T01:18:58;100602.97;;;6.19;100.00
71306;BME280;59097;46.858;18.632;2023-03-03T01:21:26;100609.75;;;6.21;100.00
71306;BME280;59097;46.858;18.632;2023-03-03T01:24:23;100606.28;;;6.21;100.00
71306;BME280;59097;46.858;18.632;2023-03-03T01:26:49;100605.47;;;6.20;100.00
71306;BME280;59097;46.858;18.632;2023-03-03T01:29:16;100612.53;;;6.20;100.00
71306;BME280;59097;46.858;18.632;2023-03-03T01:31:42;100606.37;;;5.86;100.00
71306;BME280;59097;46.858;18.632;2023-03-03T01:34:08;100604.06;;;5.65;100.00
71306;BME280;59097;46.858;18.632;2023-03-03T01:36:34;100606.97;;;5.97;100.00
71306;BME280;59097;46.858;18.632;2023-03-03T01:39:09;100605.63;;;6.53;100.00
71306;BME280;59097;46.858;18.632;2023-03-03T01:41:38;100605.63;;;6.53;100.00
71306;BME280;59097;46.858;18.632;2023-03-03T01:44:12;100603.34;;;5.98;100.00
71306;BME280;59097;46.858;18.632;2023-03-03T01:49:25;100603.69;;;5.95;100.00
71306;BME280;59097;46.858;18.632;2023-03-03T01:51:59;100602.25;;;5.65;100.00
71306;BME280;59097;46.858;18.632;2023-03-03T01:54:55;100599.34;;;5.68;100.00
71306;BME280;59097;46.858;18.632;2023-03-03T01:57:41;100601.12;;;5.86;100.00
71306;BME280;59097;46.858;18.632;2023-03-03T02:00:12;100602.78;;;5.87;100.00
71306;BME280;59097;46.858;18.632;2023-03-03T02:02:53;100598.72;;;5.75;100.00
71306;BME280;59097;46.858;18.632;2023-03-03T02:05:20;100594.13;;;5.77;100.00
71306;BME280;59097;46.858;18.632;2023-03-03T02:07:47;100600.63;;;5.64;100.00
71306;BME280;59097;46.858;18.632;2023-03-03T02:10:16;100598.97;;;5.63;100.00
71306;BME280;59097;46.858;18.632;2023-03-03T02:12:52;100595.94;;;5.76;100.00
71306;BME280;59097;46.858;18.632;2023-03-03T02:15:33;100587.62;;;6.40;100.00
71306;BME280;59097;46.858;18.632;2023-03-03T02:18:08;100587.62;;;6.40;100.00
71306;BME280;59097;46.858;18.632;2023-03-03T02:26:12;100589.91;;;5.84;100.00
71306;BME280;59097;46.858;18.632;2023-03-03T02:28:42;100593.78;;;5.71;100.00
71306;BME280;59097;46.858;18.632;2023-03-03T02:31:13;100591.91;;;5.64;100.00
71306;BME280;59097;46.858;18.632;2023-03-03T02:33:45;100589.09;;;5.65;100.00
71306;BME280;59097;46.858;18.632;2023-03-03T02:36:18;100583.34;;;5.62;100.00
71306;BME280;59097;46.858;18.632;2023-03-03T02:39:24;100588.66;;;5.52;100.00
71306;BME280;59097;46.858;18.632;2023-03-03T02:42:23;100587.44;;;5.82;100.00
71306;BME280;59097;46.858;18.632;2023-03-03T02:44:52;100576.97;;;5.72;100.00
71306;BME280;59097;46.858;18.632;2023-03-03T02:47:18;100581.16;;;5.83;100.00
71306;BME280;59097;46.858;18.632;2023-03-03T02:49:45;100576.37;;;5.79;100.00
71306;BME280;59097;46.858;18.632;2023-03-03T02:52:17;100567.62;;;6.63;100.00
71306;BME280;59097;46.858;18.632;2023-03-03T02:54:46;100567.62;;;6.63;100.00
71306;BME280;59097;46.858;18.632;2023-03-03T02:57:14;100543.50;;;5.83;100.00
71306;BME280;59097;46.858;18.632;2023-03-03T02:59:42;100576.56;;;6.03;100.00
71306;BME280;59097;46.858;18.632;2023-03-03T03:02:12;100568.22;;;5.64;100.00
71306;BME280;59097;46.858;18.632;2023-03-03T03:04:40;100569.41;;;5.87;100.00
71306;BME280;59097;46.858;18.632;2023-03-03T03:07:09;100565.63;;;5.90;100.00
71306;BME280;59097;46.858;18.632;2023-03-03T03:09:39;100562.25;;;5.80;100.00
71306;BME280;59097;46.858;18.632;2023-03-03T03:12:07;100561.53;;;5.69;100.00
71306;BME280;59097;46.858;18.632;2023-03-03T03:14:36;100563.66;;;5.92;100.00
71306;BME280;59097;46.858;18.632;2023-03-03T03:17:32;100554.19;;;5.81;100.00
71306;BME280;59097;46.858;18.632;2023-03-03T03:19:58;100555.81;;;6.00;100.00
71306;BME280;59097;46.858;18.632;2023-03-03T03:22:25;100556.19;;;6.05;100.00
71306;BME280;59097;46.858;18.632;2023-03-03T03:24:51;100555.25;;;5.88;100.00
71306;BME280;59097;46.858;18.632;2023-03-03T03:27:17;100559.44;;;5.99;100.00
71306;BME280;59097;46.858;18.632;2023-03-03T03:29:50;100540.97;;;6.74;100.00
71306;BME280;59097;46.858;18.632;2023-03-03T03:32:20;100540.97;;;6.74;100.00
71306;BME280;59097;46.858;18.632;2023-03-03T03:34:48;100552.25;;;6.09;100.00
71306;BME280;59097;46.858;18.632;2023-03-03T03:37:16;100537.28;;;6.09;100.00
71306;BME280;59097;46.858;18.632;2023-03-03T03:39:45;100542.22;;;6.12;100.00
71306;BME280;59097;46.858;18.632;2023-03-03T03:42:13;100544.69;;;6.14;100.00
71306;BME280;59097;46.858;18.632;2023-03-03T03:44:41;100536.78;;;6.14;100.00
71306;BME280;59097;46.858;18.632;2023-03-03T03:47:09;100539.75;;;6.11;100.00
71306;BME280;59097;46.858;18.632;2023-03-03T03:49:38;100541.03;;;6.07;100.00
71306;BME280;59097;46.858;18.632;2023-03-03T03:52:19;100537.81;;;5.87;100.00
71306;BME280;59097;46.858;18.632;2023-03-03T03:54:45;100542.09;;;5.88;100.00
71306;BME280;59097;46.858;18.632;2023-03-03T03:57:12;100535.72;;;5.73;100.00
71306;BME280;59097;46.858;18.632;2023-03-03T03:59:39;100530.09;;;5.68;100.00
71306;BME280;59097;46.858;18.632;2023-03-03T04:02:05;100531.72;;;5.87;100.00
71306;BME280;59097;46.858;18.632;2023-03-03T04:04:31;100533.38;;;5.70;100.00
71306;BME280;59097;46.858;18.632;2023-03-03T04:07:03;100523.25;;;6.43;100.00
71306;BME280;59097;46.858;18.632;2023-03-03T04:09:33;100523.25;;;6.43;100.00
71306;BME280;59097;46.858;18.632;2023-03-03T04:12:01;100512.31;;;5.62;100.00
71306;BME280;59097;46.858;18.632;2023-03-03T04:14:30;100523.12;;;5.59;100.00
71306;BME280;59097;46.858;18.632;2023-03-03T04:16:58;100518.37;;;5.62;100.00
71306;BME280;59097;46.858;18.632;2023-03-03T04:19:26;100515.81;;;5.70;100.00
71306;BME280;59097;46.858;18.632;2023-03-03T04:21:55;100517.59;;;5.70;100.00
71306;BME280;59097;46.858;18.632;2023-03-03T04:24:23;100516.19;;;5.32;100.00
71306;BME280;59097;46.858;18.632;2023-03-03T04:27:05;100521.84;;;5.63;100.00
71306;BME280;59097;46.858;18.632;2023-03-03T04:30:04;100518.72;;;5.59;100.00
71306;BME280;59097;46.858;18.632;2023-03-03T04:32:31;100521.94;;;5.79;100.00
71306;BME280;59097;46.858;18.632;2023-03-03T04:35:01;100526.69;;;5.76;100.00
71306;BME280;59097;46.858;18.632;2023-03-03T04:37:27;100533.09;;;5.73;100.00
71306;BME280;59097;46.858;18.632;2023-03-03T04:39:53;100516.62;;;5.71;100.00
71306;BME280;59097;46.858;18.632;2023-03-03T04:42:20;100521.34;;;5.59;100.00
71306;BME280;59097;46.858;18.632;2023-03-03T04:44:52;100519.09;;;5.72;100.00
71306;BME280;59097;46.858;18.632;2023-03-03T04:47:21;100522.25;;;5.76;100.00
71306;BME280;59097;46.858;18.632;2023-03-03T04:49:49;100530.09;;;5.68;100.00
71306;BME280;59097;46.858;18.632;2023-03-03T04:52:17;100530.75;;;5.70;100.00
71306;BME280;59097;46.858;18.632;2023-03-03T04:54:45;100533.75;;;5.75;100.00
71306;BME280;59097;46.858;18.632;2023-03-03T04:57:13;100502.59;;;5.62;100.00
71306;BME280;59097;46.858;18.632;2023-03-03T04:59:41;100530.25;;;5.66;100.00
71306;BME280;59097;46.858;18.632;2023-03-03T05:02:09;100534.12;;;5.54;100.00
71306;BME280;59097;46.858;18.632;2023-03-03T05:04:37;100530.72;;;5.62;100.00
71306;BME280;59097;46.858;18.632;2023-03-03T05:07:33;100525.50;;;5.70;100.00
71306;BME280;59097;46.858;18.632;2023-03-03T05:09:59;100538.03;;;5.76;100.00
71306;BME280;59097;46.858;18.632;2023-03-03T05:12:25;100530.81;;;5.78;100.00
71306;BME280;59097;46.858;18.632;2023-03-03T05:14:52;100528.94;;;5.88;100.00
71306;BME280;59097;46.858;18.632;2023-03-03T05:17:18;100530.28;;;5.92;100.00
71306;BME280;59097;46.858;18.632;2023-03-03T05:19:44;100531.87;;;5.85;100.00
71306;BME280;59097;46.858;18.632;2023-03-03T05:22:16;100526.16;;;6.31;100.00
71306;BME280;59097;46.858;18.632;2023-03-03T05:24:45;100526.16;;;6.31;100.00
71306;BME280;59097;46.858;18.632;2023-03-03T05:27:16;100547.59;;;5.51;100.00
71306;BME280;59097;46.858;18.632;2023-03-03T05:29:44;100547.53;;;5.69;100.00
71306;BME280;59097;46.858;18.632;2023-03-03T05:32:12;100544.84;;;5.61;100.00
71306;BME280;59097;46.858;18.632;2023-03-03T05:34:40;100546.88;;;5.67;100.00
71306;BME280;59097;46.858;18.632;2023-03-03T05:37:08;100544.50;;;5.82;100.00
71306;BME280;59097;46.858;18.632;2023-03-03T05:39:36;100549.31;;;5.86;100.00
71306;BME280;59097;46.858;18.632;2023-03-03T05:42:13;100544.63;;;5.80;100.00
71306;BME280;59097;46.858;18.632;2023-03-03T05:44:39;100546.19;;;5.65;100.00
71306;BME280;59097;46.858;18.632;2023-03-03T05:47:06;100557.00;;;5.80;100.00
71306;BME280;59097;46.858;18.632;2023-03-03T05:49:32;100539.53;;;5.53;100.00
71306;BME280;59097;46.858;18.632;2023-03-03T05:51:59;100544.19;;;5.59;100.00
71306;BME280;59097;46.858;18.632;2023-03-03T05:54:25;100557.69;;;5.64;100.00
71306;BME280;59097;46.858;18.632;2023-03-03T05:56:51;100550.47;;;5.66;100.00
71306;BME280;59097;46.858;18.632;2023-03-03T05:59:23;100567.91;;;6.52;100.00
71306;BME280;59097;46.858;18.632;2023-03-03T06:01:52;100567.91;;;6.52;100.00
71306;BME280;59097;46.858;18.632;2023-03-03T06:04:20;100565.16;;;5.94;100.00
71306;BME280;59097;46.858;18.632;2023-03-03T06:06:48;100563.31;;;5.87;100.00
71306;BME280;59097;46.858;18.632;2023-03-03T06:09:16;100569.09;;;5.72;100.00
71306;BME280;59097;46.858;18.632;2023-03-03T06:11:46;100570.38;;;5.68;100.00
71306;BME280;59097;46.858;18.632;2023-03-03T06:14:14;100569.09;;;5.90;100.00
71306;BME280;59097;46.858;18.632;2023-03-03T06:16:42;100564.81;;;5.71;100.00
71306;BME280;59097;46.858;18.632;2023-03-03T06:19:10;100572.75;;;5.54;100.00
71306;BME280;59097;46.858;18.632;2023-03-03T06:22:07;100571.06;;;5.70;100.00
71306;BME280;59097;46.858;18.632;2023-03-03T06:24:35;100576.47;;;5.69;100.00
71306;BME280;59097;46.858;18.632;2023-03-03T06:27:03;100576.31;;;5.88;100.00
71306;BME280;59097;46.858;18.632;2023-03-03T06:29:31;100580.13;;;5.94;100.00
71306;BME280;59097;46.858;18.632;2023-03-03T06:32:00;100580.97;;;5.94;100.00
71306;BME280;59097;46.858;18.632;2023-03-03T06:34:28;100583.94;;;5.99;100.00
71306;BME280;59097;46.858;18.632;2023-03-03T06:36:56;100589.47;;;6.14;100.00
71306;BME280;59097;46.858;18.632;2023-03-03T06:39:28;100587.19;;;6.19;100.00
71306;BME280;59097;46.858;18.632;2023-03-03T06:42:11;100588.06;;;6.27;100.00
71306;BME280;59097;46.858;18.632;2023-03-03T06:44:44;100588.66;;;6.21;100.00
71306;BME280;59097;46.858;18.632;2023-03-03T06:47:16;100536.69;;;5.90;100.00
71306;BME280;59097;46.858;18.632;2023-03-03T06:49:44;100599.87;;;6.23;100.00
71306;BME280;59097;46.858;18.632;2023-03-03T06:52:16;100593.47;;;6.26;100.00
71306;BME280;59097;46.858;18.632;2023-03-03T06:54:45;100556.69;;;5.65;100.00
71306;BME280;59097;46.858;18.632;2023-03-03T06:57:24;100599.94;;;6.06;100.00
71306;BME280;59097;46.858;18.632;2023-03-03T06:59:57;100598.19;;;6.14;100.00
71306;BME280;59097;46.858;18.632;2023-03-03T07:02:26;100536.97;;;5.61;100.00
71306;BME280;59097;46.858;18.632;2023-03-03T07:04:55;100601.34;;;6.18;100.00
71306;BME280;59097;46.858;18.632;2023-03-03T07:07:25;100553.97;;;5.92;100.00
71306;BME280;59097;46.858;18.632;2023-03-03T07:09:54;100590.03;;;6.25;100.00
71306;BME280;59097;46.858;18.632;2023-03-03T07:12:27;100606.94;;;6.49;100.00
71306;BME280;59097;46.858;18.632;2023-03-03T07:15:11;100603.66;;;6.55;100.00
71306;BME280;59097;46.858;18.632;2023-03-03T07:17:44;100613.91;;;6.66;100.00
71306;BME280;59097;46.858;18.632;2023-03-03T07:20:22;100620.78;;;6.51;100.00
71306;BME280;59097;46.858;18.632;2023-03-03T07:23:19;100620.25;;;6.47;100.00
71306;BME280;59097;46.858;18.632;2023-03-03T07:25:48;100610.72;;;6.46;100.00
71306;BME280;59097;46.858;18.632;2023-03-03T07:28:27;100559.66;;;6.13;100.00
71306;BME280;59097;46.858;18.632;2023-03-03T07:30:56;100623.19;;;6.44;100.00
71306;BME280;59097;46.858;18.632;2023-03-03T07:33:34;100621.72;;;6.16;100.00
71306;BME280;59097;46.858;18.632;2023-03-03T07:36:34;100625.06;;;6.60;100.00
71306;BME280;59097;46.858;18.632;2023-03-03T07:39:35;100623.63;;;6.31;100.00
71306;BME280;59097;46.858;18.632;2023-03-03T07:44:36;100627.91;;;6.32;100.00
71306;BME280;59097;46.858;18.632;2023-03-03T07:47:26;100627.09;;;6.66;100.00
71306;BME280;59097;46.858;18.632;2023-03-03T07:50:00;100602.72;;;6.30;100.00
71306;BME280;59097;46.858;18.632;2023-03-03T07:52:43;100613.87;;;6.58;100.00
71306;BME280;59097;46.858;18.632;2023-03-03T07:55:29;100611.34;;;6.90;100.00
71306;BME280;59097;46.858;18.632;2023-03-03T07:58:14;100605.97;;;7.00;100.00
71306;BME280;59097;46.858;18.632;2023-03-03T08:03:34;100612.44;;;7.94;100.00
71306;BME280;59097;46.858;18.632;2023-03-03T08:06:27;100603.47;;;7.06;100.00
71306;BME280;59097;46.858;18.632;2023-03-03T08:14:35;100599.16;;;8.18;100.00
71306;BME280;59097;46.858;18.632;2023-03-03T08:17:13;100600.75;;;8.51;97.44
71306;BME280;59097;46.858;18.632;2023-03-03T08:19:44;100604.72;;;8.55;98.10
71306;BME280;59097;46.858;18.632;2023-03-03T08:22:16;100598.97;;;8.82;96.34
71306;BME280;59097;46.858;18.632;2023-03-03T08:24:42;100598.62;;;8.47;95.98
71306;BME280;59097;46.858;18.632;2023-03-03T08:27:11;100600.69;;;8.67;97.70
71306;BME280;59097;46.858;18.632;2023-03-03T08:29:37;100580.22;;;8.06;99.90
71306;BME280;59097;46.858;18.632;2023-03-03T08:32:04;100601.50;;;8.29;98.24
71306;BME280;59097;46.858;18.632;2023-03-03T08:34:46;100608.50;;;7.74;99.23
71306;BME280;59097;46.858;18.632;2023-03-03T08:37:12;100608.97;;;7.85;100.00
71306;BME280;59097;46.858;18.632;2023-03-03T08:39:44;100610.25;;;8.05;100.00
71306;BME280;59097;46.858;18.632;2023-03-03T08:42:13;100604.75;;;8.47;98.18
71306;BME280;59097;46.858;18.632;2023-03-03T08:44:45;100607.03;;;8.58;96.85
71306;BME280;59097;46.858;18.632;2023-03-03T08:47:13;100559.81;;;7.68;99.97
71306;BME280;59097;46.858;18.632;2023-03-03T08:49:41;100604.19;;;7.89;100.00
71306;BME280;59097;46.858;18.632;2023-03-03T08:52:09;100603.53;;;7.71;100.00
71306;BME280;59097;46.858;18.632;2023-03-03T08:54:37;100586.37;;;7.75;99.51
71306;BME280;59097;46.858;18.632;2023-03-03T08:57:05;100613.56;;;8.07;100.00
71306;BME280;59097;46.858;18.632;2023-03-03T08:59:34;100612.75;;;7.99;100.00
71306;BME280;59097;46.858;18.632;2023-03-03T09:02:06;100613.56;;;8.07;100.00
71306;BME280;59097;46.858;18.632;2023-03-03T09:04:34;100604.81;;;8.07;100.00
71306;BME280;59097;46.858;18.632;2023-03-03T09:07:04;100605.31;;;8.27;97.89
71306;BME280;59097;46.858;18.632;2023-03-03T09:09:32;100610.13;;;8.07;99.46
71306;BME280;59097;46.858;18.632;2023-03-03T09:12:14;100607.34;;;8.55;97.83
71306;BME280;59097;46.858;18.632;2023-03-03T09:14:43;100610.91;;;8.78;96.11
71306;BME280;59097;46.858;18.632;2023-03-03T09:17:33;100598.78;;;8.53;96.94
71306;BME280;59097;46.858;18.632;2023-03-03T09:20:38;100615.78;;;8.90;93.65
71306;BME280;59097;46.858;18.632;2023-03-03T09:26:28;100620.50;;;9.02;92.28
71306;BME280;59097;46.858;18.632;2023-03-03T09:29:10;100584.03;;;8.90;91.78
71306;BME280;59097;46.858;18.632;2023-03-03T09:32:07;100612.78;;;9.23;90.71
71306;BME280;59097;46.858;18.632;2023-03-03T09:37:52;100616.16;;;8.87;91.14
71306;BME280;59097;46.858;18.632;2023-03-03T09:43:28;100618.25;;;8.60;91.81
71306;BME280;59097;46.858;18.632;2023-03-03T09:49:19;100622.72;;;8.91;89.89
71306;BME280;59097;46.858;18.632;2023-03-03T10:00:19;100611.94;;;9.23;87.68
71306;BME280;59097;46.858;18.632;2023-03-03T10:11:14;100619.31;;;9.35;88.25
71306;BME280;59097;46.858;18.632;2023-03-03T10:16:35;100613.69;;;9.98;84.08
71306;BME280;59097;46.858;18.632;2023-03-03T10:22:39;100614.19;;;10.17;84.13
71306;BME280;59097;46.858;18.632;2023-03-03T10:25:27;100622.41;;;9.84;85.70
71306;BME280;59097;46.858;18.632;2023-03-03T10:30:57;100614.38;;;10.59;83.05
71306;BME280;59097;46.858;18.632;2023-03-03T10:36:43;100614.81;;;10.33;84.09
71306;BME280;59097;46.858;18.632;2023-03-03T10:51:21;100606.63;;;9.00;89.14
71306;BME280;59097;46.858;18.632;2023-03-03T10:54:04;100610.31;;;9.22;88.69
71306;BME280;59097;46.858;18.632;2023-03-03T11:05:54;100599.59;;;8.84;91.30
71306;BME280;59097;46.858;18.632;2023-03-03T11:08:43;100601.38;;;8.61;92.31
71306;BME280;59097;46.858;18.632;2023-03-03T11:11:41;100596.09;;;8.61;92.90
71306;BME280;59097;46.858;18.632;2023-03-03T11:14:22;100603.03;;;8.62;93.55
71306;BME280;59097;46.858;18.632;2023-03-03T11:22:35;100588.03;;;9.16;89.59
71306;BME280;59097;46.858;18.632;2023-03-03T11:36:37;100577.59;;;9.60;86.23
71306;BME280;59097;46.858;18.632;2023-03-03T11:39:11;100577.31;;;9.55;86.78
71306;BME280;59097;46.858;18.632;2023-03-03T11:42:00;100574.44;;;9.94;84.82
71306;BME280;59097;46.858;18.632;2023-03-03T11:44:40;100571.78;;;9.79;85.98
71306;BME280;59097;46.858;18.632;2023-03-03T11:47:21;100563.69;;;9.58;85.68
71306;BME280;59097;46.858;18.632;2023-03-03T11:49:58;100548.44;;;9.97;84.66
71306;BME280;59097;46.858;18.632;2023-03-03T11:55:33;100564.44;;;10.04;85.39
71306;BME280;59097;46.858;18.632;2023-03-03T12:00:51;100554.16;;;10.24;84.49
71306;BME280;59097;46.858;18.632;2023-03-03T12:03:33;100546.53;;;10.50;83.18
71306;BME280;59097;46.858;18.632;2023-03-03T12:12:26;100554.63;;;9.90;82.59
71306;BME280;59097;46.858;18.632;2023-03-03T12:15:26;100548.00;;;10.38;81.78
71306;BME280;59097;46.858;18.632;2023-03-03T12:26:23;100544.16;;;10.40;82.36
71306;BME280;59097;46.858;18.632;2023-03-03T12:28:57;100542.84;;;9.78;84.75
71306;BME280;59097;46.858;18.632;2023-03-03T12:34:23;100537.97;;;10.19;83.00
71306;BME280;59097;46.858;18.632;2023-03-03T12:42:58;100513.88;;;9.76;82.57
71306;BME280;59097;46.858;18.632;2023-03-03T12:45:43;100536.59;;;10.37;81.57
71306;BME280;59097;46.858;18.632;2023-03-03T12:51:13;100541.25;;;10.71;79.43
71306;BME280;59097;46.858;18.632;2023-03-03T12:57:13;100537.41;;;10.52;80.02
71306;BME280;59097;46.858;18.632;2023-03-03T13:05:32;100542.72;;;10.23;79.78
71306;BME280;59097;46.858;18.632;2023-03-03T13:08:25;100543.72;;;10.37;80.14
71306;BME280;59097;46.858;18.632;2023-03-03T13:11:15;100528.19;;;10.19;80.39
71306;BME280;59097;46.858;18.632;2023-03-03T13:14:01;100526.13;;;10.65;78.98
71306;BME280;59097;46.858;18.632;2023-03-03T13:16:37;100527.31;;;10.48;77.88
71306;BME280;59097;46.858;18.632;2023-03-03T13:19:18;100520.66;;;10.52;79.79
71306;BME280;59097;46.858;18.632;2023-03-03T13:22:12;100513.62;;;11.01;77.79
71306;BME280;59097;46.858;18.632;2023-03-03T13:24:54;100507.50;;;10.44;79.17
71306;BME280;59097;46.858;18.632;2023-03-03T13:27:41;100523.72;;;10.70;79.28
71306;BME280;59097;46.858;18.632;2023-03-03T13:30:21;100520.56;;;10.60;79.54
71306;BME280;59097;46.858;18.632;2023-03-03T13:33:25;100511.19;;;10.28;80.56
71306;BME280;59097;46.858;18.632;2023-03-03T13:36:11;100508.63;;;10.35;80.13
71306;BME280;59097;46.858;18.632;2023-03-03T13:39:26;100503.84;;;10.81;79.14
71306;BME280;59097;46.858;18.632;2023-03-03T14:06:08;100491.94;;;10.77;77.94
71306;BME280;59097;46.858;18.632;2023-03-03T14:11:42;100491.75;;;10.57;79.31
71306;BME280;59097;46.858;18.632;2023-03-03T14:22:53;100485.28;;;10.45;80.49
71306;BME280;59097;46.858;18.632;2023-03-03T14:25:22;100487.94;;;10.45;78.57
71306;BME280;59097;46.858;18.632;2023-03-03T14:28:09;100480.66;;;10.89;78.62
71306;BME280;59097;46.858;18.632;2023-03-03T14:30:42;100480.66;;;10.89;78.62
71306;BME280;59097;46.858;18.632;2023-03-03T14:35:59;100481.56;;;9.95;82.22
71306;BME280;59097;46.858;18.632;2023-03-03T14:41:16;100473.12;;;10.36;81.24
71306;BME280;59097;46.858;18.632;2023-03-03T14:43:58;100471.56;;;10.41;80.55
71306;BME280;59097;46.858;18.632;2023-03-03T14:49:03;100465.97;;;10.51;79.52
71306;BME280;59097;46.858;18.632;2023-03-03T14:51:48;100461.81;;;10.27;80.15
71306;BME280;59097;46.858;18.632;2023-03-03T14:54:27;100465.75;;;10.31;80.13
71306;BME280;59097;46.858;18.632;2023-03-03T14:57:16;100467.87;;;10.21;80.51
71306;BME280;59097;46.858;18.632;2023-03-03T15:02:31;100462.56;;;10.06;80.96
71306;BME280;59097;46.858;18.632;2023-03-03T15:05:33;100461.38;;;9.80;81.94
71306;BME280;59097;46.858;18.632;2023-03-03T15:16:02;100455.22;;;9.35;84.82
71306;BME280;59097;46.858;18.632;2023-03-03T15:18:32;100459.22;;;9.17;85.91
71306;BME280;59097;46.858;18.632;2023-03-03T15:21:12;100463.19;;;9.13;87.10
71306;BME280;59097;46.858;18.632;2023-03-03T15:24:13;100456.63;;;9.09;87.75
71306;BME280;59097;46.858;18.632;2023-03-03T15:27:05;100457.91;;;9.13;87.00
71306;BME280;59097;46.858;18.632;2023-03-03T15:29:45;100456.63;;;9.09;88.23
71306;BME280;59097;46.858;18.632;2023-03-03T15:32:53;100461.19;;;9.15;88.40
71306;BME280;59097;46.858;18.632;2023-03-03T15:41:10;100460.47;;;8.83;92.88
71306;BME280;59097;46.858;18.632;2023-03-03T15:44:05;100462.44;;;8.81;92.50
71306;BME280;59097;46.858;18.632;2023-03-03T15:47:00;100464.37;;;8.65;93.04
71306;BME280;59097;46.858;18.632;2023-03-03T15:53:06;100457.16;;;8.59;94.06
71306;BME280;59097;46.858;18.632;2023-03-03T16:03:57;100468.66;;;8.04;96.46
71306;BME280;59097;46.858;18.632;2023-03-03T16:06:53;100469.84;;;7.94;97.67
71306;BME280;59097;46.858;18.632;2023-03-03T16:18:35;100483.81;;;7.55;99.57
71306;BME280;59097;46.858;18.632;2023-03-03T16:21:20;100484.47;;;7.49;100.00
71306;BME280;59097;46.858;18.632;2023-03-03T16:24:00;100486.31;;;8.04;98.71
71306;BME280;59097;46.858;18.632;2023-03-03T16:26:47;100486.31;;;8.04;98.71
71306;BME280;59097;46.858;18.632;2023-03-03T16:34:59;100499.81;;;7.22;100.00
71306;BME280;59097;46.858;18.632;2023-03-03T16:37:35;100500.00;;;7.12;100.00
71306;BME280;59097;46.858;18.632;2023-03-03T16:40:25;100500.50;;;7.08;100.00
71306;BME280;59097;46.858;18.632;2023-03-03T16:43:16;100504.63;;;7.02;100.00
71306;BME280;59097;46.858;18.632;2023-03-03T16:46:10;100506.09;;;6.96;100.00
71306;BME280;59097;46.858;18.632;2023-03-03T16:51:45;100510.38;;;6.89;100.00
71306;BME280;59097;46.858;18.632;2023-03-03T16:54:24;100508.19;;;6.85;100.00
71306;BME280;59097;46.858;18.632;2023-03-03T17:14:14;100543.19;;;6.45;100.00
71306;BME280;59097;46.858;18.632;2023-03-03T17:17:10;100541.66;;;6.34;100.00
71306;BME280;59097;46.858;18.632;2023-03-03T17:20:13;100540.66;;;6.27;100.00
71306;BME280;59097;46.858;18.632;2023-03-03T17:22:59;100540.97;;;6.24;100.00
71306;BME280;59097;46.858;18.632;2023-03-03T17:25:52;100534.88;;;6.24;100.00
71306;BME280;59097;46.858;18.632;2023-03-03T17:32:11;100543.88;;;6.13;100.00
71306;BME280;59097;46.858;18.632;2023-03-03T17:37:32;100544.25;;;6.68;100.00
71306;BME280;59097;46.858;18.632;2023-03-03T17:43:30;100545.97;;;6.02;100.00
71306;BME280;59097;46.858;18.632;2023-03-03T17:46:08;100551.69;;;5.97;100.00
71306;BME280;59097;46.858;18.632;2023-03-03T17:48:47;100558.22;;;5.93;100.00